Time;durP1;ratioP1;P1;durP2;ratioP2;P2;SDS_P1;SDS_P2;PMS_P1;PMS_P2;Temp;Humidity;BMP_temperature;BMP_pressure;BME280_temperature;BME280_humidity;BME280_pressure;Samples;Min_cycle;Max_cycle;Signal;HPM_P1;HPM_P2
2022/01/27 00:07:35;;;;;;;21.27;7.97;;;2.10;99.90;;;;;;5050720;28;20230;-68
2022/01/27 00:10:12;;;;;;;14.43;6.87;;;2.20;99.90;;;;;;5049568;28;20831;-68
2022/01/27 00:12:40;;;;;;;13.13;6.50;;;2.20;99.90;;;;;;5033334;28;20473;-69
2022/01/27 00:15:10;;;;;;;15.00;7.50;;;2.20;99.90;;;;;;5051502;28;20462;-68
2022/01/27 00:17:44;;;;;;;18.40;7.43;;;2.20;99.90;;;;;;5050839;28;20541;-68
2022/01/27 00:20:11;;;;;;;17.63;7.93;;;2.20;99.90;;;;;;5035117;28;21017;-69
2022/01/27 00:22:37;;;;;;;14.27;7.27;;;2.30;99.90;;;;;;5042660;28;20519;-69
2022/01/27 00:25:05;;;;;;;19.87;8.43;;;2.30;99.90;;;;;;5042678;28;20450;-69
2022/01/27 00:27:32;;;;;;;20.33;8.67;;;2.30;99.90;;;;;;5071134;28;20706;-69
2022/01/27 00:30:00;;;;;;;13.17;6.70;;;2.30;99.90;;;;;;5052764;28;20466;-69
2022/01/27 00:32:25;;;;;;;21.10;8.10;;;2.30;99.90;;;;;;5050592;28;20462;-69
2022/01/27 00:34:53;;;;;;;25.53;7.80;;;2.30;99.90;;;;;;5049903;28;20476;-69
2022/01/27 00:37:18;;;;;;;15.60;6.87;;;2.30;99.90;;;;;;5025001;28;20232;-67
2022/01/27 00:39:44;;;;;;;15.33;6.90;;;2.30;99.90;;;;;;5034596;28;20537;-69
2022/01/27 00:42:10;;;;;;;15.83;6.93;;;2.30;99.90;;;;;;5049851;28;20232;-69
2022/01/27 00:44:35;;;;;;;23.67;9.10;;;2.30;99.90;;;;;;5045454;28;20247;-69
2022/01/27 00:47:01;;;;;;;20.07;8.10;;;2.30;99.90;;;;;;5034081;28;20248;-69
2022/01/27 00:49:27;;;;;;;13.93;7.50;;;2.30;99.90;;;;;;5051850;28;20310;-68
2022/01/27 00:51:53;;;;;;;19.83;8.30;;;2.30;99.90;;;;;;5050529;28;20269;-68
2022/01/27 00:54:23;;;;;;;14.27;6.50;;;2.30;99.90;;;;;;5051355;28;20708;-68
2022/01/27 01:01:55;;;;;;;17.20;8.73;;;2.20;99.90;;;;;;5051848;28;20236;-68
2022/01/27 01:04:27;;;;;;;16.13;7.40;;;2.20;99.90;;;;;;5049602;28;20454;-68
2022/01/27 01:06:53;;;;;;;17.57;8.40;;;2.20;99.90;;;;;;5051266;28;20869;-69
2022/01/27 01:10:41;;;;;;;14.50;6.87;;;2.20;99.90;;;;;;5050789;28;20447;-68
2022/01/27 01:13:11;;;;;;;;;;;;;;;;;;;;;
2022/01/27 01:14:51;;;;;;;14.90;8.50;;;2.20;99.90;;;;;;5051417;28;20508;-68
2022/01/27 01:33:09;;;;;;;15.47;8.27;;;2.00;99.90;;;;;;5069664;28;20487;-68
2022/01/27 01:38:18;;;;;;;14.17;7.40;;;2.00;99.90;;;;;;5049444;28;20473;-68
2022/01/27 01:40:46;;;;;;;18.40;8.77;;;2.00;99.90;;;;;;5049919;28;20493;-69
2022/01/27 01:43:12;;;;;;;11.80;5.60;;;1.90;99.90;;;;;;5047323;28;20458;-69
2022/01/27 01:45:37;;;;;;;25.20;7.90;;;1.90;99.90;;;;;;5049331;28;21057;-69
2022/01/27 01:48:03;;;;;;;20.07;9.90;;;2.00;99.90;;;;;;5049797;28;20235;-68
2022/01/27 01:50:29;;;;;;;23.93;9.83;;;2.00;99.90;;;;;;5050793;28;20622;-69
2022/01/27 01:52:55;;;;;;;18.93;8.40;;;2.00;99.90;;;;;;5049248;28;20461;-69
2022/01/27 01:55:21;;;;;;;20.17;8.00;;;2.00;99.90;;;;;;5049060;28;20377;-68
2022/01/27 01:57:46;;;;;;;24.43;9.67;;;2.00;99.90;;;;;;5033114;28;20228;-69
2022/01/27 02:00:13;;;;;;;17.33;8.90;;;2.00;99.90;;;;;;5046475;28;20217;-69
2022/01/27 02:02:41;;;;;;;22.40;9.10;;;2.00;99.90;;;;;;5049409;28;20295;-69
2022/01/27 02:05:08;;;;;;;21.23;8.87;;;1.90;99.90;;;;;;5048593;28;20529;-69
2022/01/27 02:17:58;;;;;;;19.63;8.77;;;1.90;99.90;;;;;;5050752;28;20462;-69
2022/01/27 02:18:27;;;;;;;24.53;8.63;;;1.90;99.90;;;;;;5026556;28;21011;-68
2022/01/27 02:20:54;;;;;;;21.77;7.60;;;1.90;99.90;;;;;;5049194;28;20454;-69
2022/01/27 02:23:19;;;;;;;24.33;8.83;;;1.80;99.90;;;;;;5031213;28;21117;-68
2022/01/27 02:25:45;;;;;;;16.50;8.23;;;1.90;99.90;;;;;;5054762;28;20528;-69
2022/01/27 02:28:11;;;;;;;20.57;9.43;;;1.90;99.90;;;;;;5068649;28;20314;-70
2022/01/27 02:30:38;;;;;;;20.20;7.47;;;1.90;99.90;;;;;;5064413;28;20453;-68
2022/01/27 02:33:04;;;;;;;17.73;8.23;;;1.90;99.90;;;;;;5048908;28;20465;-70
2022/01/27 02:35:32;;;;;;;25.93;9.40;;;2.00;99.90;;;;;;5047420;28;20459;-69
2022/01/27 02:37:58;;;;;;;20.10;8.87;;;1.90;99.90;;;;;;5031990;28;20544;-69
2022/01/27 02:40:28;;;;;;;17.23;9.40;;;1.90;99.90;;;;;;5047974;28;20855;-68
2022/01/27 02:42:54;;;;;;;19.37;8.10;;;1.90;99.90;;;;;;5048851;28;20987;-70
2022/01/27 02:45:32;;;;;;;22.83;9.97;;;2.00;99.90;;;;;;5031642;28;20887;-68
2022/01/27 02:47:58;;;;;;;16.60;6.90;;;1.90;99.90;;;;;;5057135;28;20466;-69
2022/01/27 02:50:24;;;;;;;18.50;7.20;;;1.90;99.90;;;;;;5049784;28;20446;-69
2022/01/27 02:52:49;;;;;;;19.67;7.83;;;1.90;99.90;;;;;;5061975;28;20518;-69
2022/01/27 02:55:15;;;;;;;19.40;8.47;;;1.90;99.90;;;;;;5050957;28;20298;-68
2022/01/27 02:57:41;;;;;;;15.40;6.90;;;1.80;99.90;;;;;;5056428;28;20282;-69
2022/01/27 03:00:08;;;;;;;17.87;8.10;;;1.90;99.90;;;;;;5049747;28;20211;-69
2022/01/27 03:02:35;;;;;;;18.10;8.20;;;1.90;99.90;;;;;;5068983;28;20223;-69
2022/01/27 03:05:13;;;;;;;14.37;7.67;;;1.80;99.90;;;;;;5061003;28;20489;-70
2022/01/27 03:07:47;;;;;;;19.10;8.77;;;1.80;99.90;;;;;;5054127;28;20461;-68
2022/01/27 03:10:15;;;;;;;15.93;8.03;;;1.80;99.90;;;;;;5052645;28;20466;-69
2022/01/27 03:12:41;;;;;;;16.20;7.80;;;1.80;99.90;;;;;;5050001;28;20473;-69
2022/01/27 03:15:08;;;;;;;19.73;7.70;;;1.80;99.90;;;;;;5046341;28;20566;-69
2022/01/27 03:17:34;;;;;;;17.43;8.10;;;1.80;99.90;;;;;;5055683;28;20215;-67
2022/01/27 03:20:00;;;;;;;20.50;8.50;;;1.80;99.90;;;;;;5049109;28;20534;-69
2022/01/27 03:22:25;;;;;;;21.70;9.57;;;1.80;99.90;;;;;;5049163;28;20311;-69
2022/01/27 03:24:51;;;;;;;20.10;8.10;;;1.70;99.90;;;;;;5031304;28;20216;-69
2022/01/27 03:27:21;;;;;;;18.50;8.40;;;1.70;99.90;;;;;;5048864;28;20238;-68
2022/01/27 03:29:47;;;;;;;20.03;8.40;;;1.80;99.90;;;;;;5048822;28;20219;-69
2022/01/27 03:32:12;;;;;;;20.87;9.30;;;1.80;99.90;;;;;;5048340;28;20513;-68
2022/01/27 03:34:39;;;;;;;27.97;9.40;;;1.80;99.90;;;;;;5047867;28;20238;-69
2022/01/27 03:37:04;;;;;;;18.93;7.57;;;1.90;99.90;;;;;;5047859;28;20243;-69
2022/01/27 03:39:30;;;;;;;16.27;7.37;;;1.90;99.90;;;;;;5030935;28;20462;-69
2022/01/27 03:41:57;;;;;;;17.00;8.20;;;1.90;99.90;;;;;;5046149;28;20234;-69
2022/01/27 03:44:23;;;;;;;17.63;8.30;;;1.90;99.90;;;;;;5067325;28;20272;-67
2022/01/27 03:46:50;;;;;;;19.10;8.03;;;1.80;99.90;;;;;;5056216;28;20478;-68
2022/01/27 03:49:16;;;;;;;16.77;7.67;;;1.80;99.90;;;;;;5053309;28;20454;-69
2022/01/27 03:51:42;;;;;;;18.97;9.03;;;1.80;99.90;;;;;;5051936;28;20521;-67
2022/01/27 03:54:08;;;;;;;22.83;7.40;;;1.70;99.90;;;;;;5052829;28;20274;-69
2022/01/27 03:56:34;;;;;;;18.83;8.40;;;1.80;99.90;;;;;;5052519;28;20442;-68
2022/01/27 03:59:00;;;;;;;17.70;9.27;;;1.80;99.90;;;;;;5042139;28;20887;-69
2022/01/27 04:01:25;;;;;;;18.87;8.57;;;1.80;99.90;;;;;;5052954;28;20227;-68
2022/01/27 04:03:55;;;;;;;20.80;8.30;;;1.80;99.90;;;;;;5052790;28;20263;-69
2022/01/27 04:06:31;;;;;;;18.17;7.57;;;1.90;99.90;;;;;;5051934;28;20224;-69
2022/01/27 04:08:56;;;;;;;22.93;8.27;;;1.90;99.90;;;;;;5052620;28;20454;-69
2022/01/27 04:11:22;;;;;;;17.87;6.70;;;2.00;99.90;;;;;;5068104;28;20868;-69
2022/01/27 04:13:48;;;;;;;17.33;6.40;;;1.90;99.90;;;;;;5059947;28;20306;-68
2022/01/27 04:16:14;;;;;;;20.80;7.80;;;1.90;99.90;;;;;;5033690;28;20216;-68
2022/01/27 04:18:39;;;;;;;16.67;7.60;;;1.90;99.90;;;;;;5052795;28;20227;-68
2022/01/27 04:21:05;;;;;;;16.33;6.53;;;1.90;99.90;;;;;;5051802;28;20216;-69
2022/01/27 04:23:31;;;;;;;14.60;6.77;;;1.80;99.90;;;;;;5053609;28;20219;-67
2022/01/27 04:25:57;;;;;;;13.00;6.40;;;1.90;99.90;;;;;;5062419;28;20215;-68
2022/01/27 04:28:28;;;;;;;17.70;8.17;;;1.90;99.90;;;;;;5036064;28;20231;-68
2022/01/27 04:30:56;;;;;;;15.60;7.87;;;1.80;99.90;;;;;;5043080;28;20446;-69
2022/01/27 04:33:28;;;;;;;15.13;6.50;;;1.80;99.90;;;;;;5059338;28;20446;-69
2022/01/27 04:35:58;;;;;;;13.40;6.50;;;1.90;99.90;;;;;;5059222;28;20454;-69
2022/01/27 04:38:52;;;;;;;15.77;6.93;;;1.90;99.90;;;;;;5042066;28;20509;-69
2022/01/27 04:41:30;;;;;;;17.27;8.07;;;1.90;99.90;;;;;;5032131;28;20834;-69
2022/01/27 04:44:04;;;;;;;12.53;5.87;;;1.80;99.90;;;;;;5053269;28;20477;-69
2022/01/27 04:49:00;;;;;;;11.17;4.83;;;1.80;99.90;;;;;;5062840;28;20528;-69
2022/01/27 04:51:27;;;;;;;10.20;5.50;;;1.90;99.90;;;;;;5066149;28;20220;-68
2022/01/27 04:56:20;;;;;;;10.87;5.77;;;1.90;99.90;;;;;;5050049;28;20537;-69
2022/01/27 04:58:50;;;;;;;15.07;5.87;;;2.00;99.90;;;;;;5041967;28;20236;-69
2022/01/27 05:01:17;;;;;;;9.57;5.13;;;2.00;99.90;;;;;;5043092;28;20462;-69
2022/01/27 05:03:52;;;;;;;;;;;;;;;;;;;;;
2022/01/27 05:06:09;;;;;;;13.77;6.33;;;2.10;99.90;;;;;;5048459;28;20859;-70
2022/01/27 05:08:35;;;;;;;13.93;5.00;;;2.00;99.90;;;;;;5050907;28;20208;-69
2022/01/27 05:11:11;;;;;;;12.23;5.77;;;2.00;99.90;;;;;;5052004;28;20230;-70
2022/01/27 05:13:47;;;;;;;13.60;5.90;;;2.00;99.90;;;;;;5041723;28;20442;-69
2022/01/27 05:16:13;;;;;;;14.07;6.57;;;2.00;99.90;;;;;;5033125;28;20450;-70
2022/01/27 05:18:39;;;;;;;12.70;5.50;;;2.00;99.90;;;;;;5049941;28;20469;-68
2022/01/27 05:21:04;;;;;;;9.53;4.93;;;1.90;99.90;;;;;;5050230;28;20262;-70
2022/01/27 05:23:30;;;;;;;12.87;6.03;;;1.90;99.90;;;;;;5053667;28;20257;-69
2022/01/27 05:25:56;;;;;;;11.30;5.37;;;1.80;99.90;;;;;;5055920;28;20222;-70
2022/01/27 05:28:22;;;;;;;10.80;5.63;;;1.80;99.90;;;;;;5049323;28;20226;-68
2022/01/27 05:30:48;;;;;;;15.77;5.37;;;1.80;99.90;;;;;;5051488;28;20705;-68
2022/01/27 05:33:14;;;;;;;11.80;5.30;;;1.70;99.90;;;;;;5049704;28;20541;-69
2022/01/27 05:35:40;;;;;;;14.33;5.70;;;1.70;99.90;;;;;;5049391;28;20464;-68
2022/01/27 05:38:06;;;;;;;17.20;5.47;;;1.70;99.90;;;;;;5045450;28;20231;-69
2022/01/27 05:40:31;;;;;;;13.33;5.10;;;1.70;99.90;;;;;;5049440;28;20220;-69
2022/01/27 05:42:57;;;;;;;13.63;5.50;;;1.70;99.90;;;;;;5051259;28;20246;-69
2022/01/27 05:45:23;;;;;;;11.07;5.90;;;1.80;99.90;;;;;;5049102;28;20230;-68
2022/01/27 05:47:48;;;;;;;14.10;6.30;;;1.80;99.90;;;;;;5049679;28;20657;-68
2022/01/27 05:50:14;;;;;;;12.87;6.07;;;1.80;99.90;;;;;;5049680;28;20220;-69
2022/01/27 05:52:40;;;;;;;13.63;4.40;;;1.80;99.90;;;;;;5050909;28;20227;-69
2022/01/27 05:55:07;;;;;;;14.40;4.77;;;1.80;99.90;;;;;;5048491;28;20220;-68
2022/01/27 05:57:32;;;;;;;14.07;5.60;;;1.80;99.90;;;;;;5048450;28;20454;-69
2022/01/27 05:59:58;;;;;;;10.30;5.20;;;1.90;99.90;;;;;;5050878;28;20465;-69
2022/01/27 06:02:24;;;;;;;12.97;6.87;;;1.90;99.90;;;;;;5048428;28;20261;-69
2022/01/27 06:04:50;;;;;;;10.23;4.20;;;1.90;99.90;;;;;;5049505;28;20227;-68
2022/01/27 06:07:16;;;;;;;14.10;5.73;;;1.90;99.90;;;;;;5048612;28;20455;-69
2022/01/27 06:09:41;;;;;;;14.47;6.43;;;1.90;99.90;;;;;;5048639;28;20216;-68
2022/01/27 06:12:07;;;;;;;9.80;5.20;;;1.80;99.90;;;;;;5050831;28;20725;-69
2022/01/27 06:14:33;;;;;;;17.80;6.10;;;1.80;99.90;;;;;;5049611;28;20226;-68
2022/01/27 06:16:59;;;;;;;11.27;6.00;;;1.80;99.90;;;;;;5049346;28;20466;-69
2022/01/27 06:19:27;;;;;;;8.20;5.20;;;1.80;99.90;;;;;;5049041;28;20227;-69
2022/01/27 06:21:53;;;;;;;11.83;5.70;;;1.90;99.90;;;;;;5049863;28;20242;-69
2022/01/27 06:24:19;;;;;;;15.67;5.60;;;1.90;99.90;;;;;;5057040;28;20450;-68
2022/01/27 06:26:45;;;;;;;10.50;4.57;;;1.90;99.90;;;;;;5058118;28;20978;-68
2022/01/27 06:29:10;;;;;;;10.57;5.17;;;1.90;99.90;;;;;;5061574;28;20481;-68
2022/01/27 06:31:36;;;;;;;9.77;5.47;;;1.90;99.90;;;;;;5055446;28;20228;-69
2022/01/27 06:34:02;;;;;;;15.33;5.90;;;1.90;99.90;;;;;;5055836;28;20276;-68
2022/01/27 06:36:28;;;;;;;13.40;6.33;;;2.00;99.90;;;;;;5060111;28;20853;-68
2022/01/27 06:38:54;;;;;;;12.80;5.67;;;2.00;99.90;;;;;;5061990;28;20246;-69
2022/01/27 06:41:20;;;;;;;11.40;5.93;;;2.00;99.90;;;;;;5023188;28;20967;-68
2022/01/27 06:43:46;;;;;;;12.07;5.40;;;2.10;99.90;;;;;;5050054;28;20454;-68
2022/01/27 06:46:11;;;;;;;12.57;5.37;;;2.10;99.90;;;;;;5047062;28;20701;-69
2022/01/27 06:48:37;;;;;;;12.20;5.47;;;2.10;99.90;;;;;;5082337;28;20235;-68
2022/01/27 06:51:04;;;;;;;11.40;4.93;;;2.10;99.90;;;;;;5049365;28;20219;-69
2022/01/27 06:53:31;;;;;;;13.63;6.40;;;2.10;99.90;;;;;;5048073;28;20239;-69
2022/01/27 06:55:57;;;;;;;11.77;5.57;;;2.10;99.90;;;;;;5048520;28;20537;-69
2022/01/27 06:58:22;;;;;;;13.90;5.80;;;2.20;99.90;;;;;;5049555;28;20525;-69
2022/01/27 07:00:48;;;;;;;16.20;6.37;;;2.20;99.90;;;;;;5047403;28;21231;-68
2022/01/27 07:03:14;;;;;;;14.73;6.50;;;2.20;99.90;;;;;;5045736;28;20336;-69
2022/01/27 07:05:41;;;;;;;18.43;6.40;;;2.20;99.90;;;;;;5054696;28;20303;-69
2022/01/27 07:08:07;;;;;;;15.10;7.67;;;2.20;99.90;;;;;;5028495;28;20228;-69
2022/01/27 07:10:33;;;;;;;12.03;6.70;;;2.20;99.90;;;;;;5054566;28;20457;-69
2022/01/27 07:12:59;;;;;;;18.67;8.27;;;2.20;99.90;;;;;;5056775;28;20545;-69
2022/01/27 07:15:24;;;;;;;13.23;6.10;;;2.20;99.90;;;;;;5057615;28;20219;-68
2022/01/27 07:17:50;;;;;;;13.23;6.00;;;2.20;99.90;;;;;;5041427;28;20223;-70
2022/01/27 07:20:17;;;;;;;12.57;5.53;;;2.10;99.90;;;;;;5058338;28;20268;-69
2022/01/27 07:22:43;;;;;;;12.50;5.90;;;2.20;99.90;;;;;;5053466;28;20485;-69
2022/01/27 07:25:10;;;;;;;15.97;6.73;;;2.20;99.90;;;;;;5053718;28;20467;-70
2022/01/27 07:27:36;;;;;;;11.33;4.97;;;2.20;99.90;;;;;;5046457;28;20991;-69
2022/01/27 07:30:03;;;;;;;8.87;4.43;;;2.20;99.90;;;;;;5053394;28;20485;-70
2022/01/27 07:32:29;;;;;;;12.40;6.00;;;2.30;99.90;;;;;;5043325;28;20459;-70
2022/01/27 07:34:54;;;;;;;11.90;6.93;;;2.30;99.90;;;;;;5049255;28;20458;-70
2022/01/27 07:37:20;;;;;;;12.87;5.40;;;2.30;99.90;;;;;;5048455;28;20224;-70
2022/01/27 07:39:46;;;;;;;13.70;5.20;;;2.30;99.90;;;;;;5052839;28;20306;-67
2022/01/27 07:42:12;;;;;;;11.30;5.60;;;2.30;99.90;;;;;;5046971;28;20257;-70
2022/01/27 07:44:38;;;;;;;13.27;5.87;;;2.30;99.90;;;;;;5034918;28;20235;-70
2022/01/27 07:47:04;;;;;;;9.67;5.27;;;2.30;99.90;;;;;;5044878;28;20468;-70
2022/01/27 07:49:30;;;;;;;9.10;5.40;;;2.30;99.90;;;;;;5032347;28;20276;-70
2022/01/27 07:51:56;;;;;;;21.63;6.30;;;2.30;99.90;;;;;;5037557;28;20294;-69
2022/01/27 07:54:22;;;;;;;8.47;4.53;;;2.30;99.90;;;;;;5051182;28;20458;-69
2022/01/27 07:56:48;;;;;;;12.90;5.13;;;2.30;99.90;;;;;;5051644;28;20457;-68
2022/01/27 07:59:14;;;;;;;14.90;5.93;;;2.30;99.90;;;;;;5041596;28;20443;-69
2022/01/27 08:01:39;;;;;;;16.20;7.63;;;2.30;99.90;;;;;;5041539;28;20220;-70
2022/01/27 08:04:05;;;;;;;9.97;5.63;;;2.30;99.90;;;;;;5050826;28;20212;-70
2022/01/27 08:06:31;;;;;;;12.20;6.33;;;2.30;99.90;;;;;;5051820;28;20802;-69
2022/01/27 08:08:57;;;;;;;14.43;5.80;;;2.30;99.90;;;;;;5050401;28;20230;-69
2022/01/27 08:11:22;;;;;;;11.47;4.87;;;2.40;99.90;;;;;;5049994;28;20232;-70
2022/01/27 08:13:48;;;;;;;15.00;5.60;;;2.40;99.90;;;;;;5051959;28;20239;-69
2022/01/27 08:16:14;;;;;;;14.50;6.87;;;2.40;99.90;;;;;;5051678;28;20310;-70
2022/01/27 08:18:40;;;;;;;15.60;6.40;;;2.40;99.90;;;;;;5050467;28;20251;-69
2022/01/27 08:21:06;;;;;;;15.20;7.73;;;2.40;99.90;;;;;;5051009;28;20450;-69
2022/01/27 08:23:31;;;;;;;11.47;5.30;;;2.40;99.90;;;;;;5052250;28;20262;-67
2022/01/27 08:26:06;;;;;;;13.50;6.47;;;2.40;99.90;;;;;;5056372;28;20249;-69
2022/01/27 08:28:47;;;;;;;16.80;6.07;;;2.40;99.90;;;;;;5061371;28;20672;-70
2022/01/27 08:31:14;;;;;;;13.67;6.13;;;2.40;99.90;;;;;;5052929;28;20446;-70
2022/01/27 08:33:41;;;;;;;9.10;5.07;;;2.50;99.90;;;;;;5056528;28;20486;-69
2022/01/27 08:36:07;;;;;;;13.40;5.67;;;2.50;99.90;;;;;;5029533;28;20455;-70
2022/01/27 08:38:36;;;;;;;12.77;5.73;;;2.50;99.90;;;;;;5049216;28;20869;-70
2022/01/27 08:41:02;;;;;;;19.23;6.97;;;2.40;99.90;;;;;;5050297;28;20976;-70
2022/01/27 08:43:28;;;;;;;12.93;6.70;;;2.40;99.90;;;;;;5035859;28;20554;-68
2022/01/27 08:45:54;;;;;;;12.57;6.53;;;2.40;99.90;;;;;;5035059;28;20527;-70
2022/01/27 08:48:21;;;;;;;13.20;5.73;;;2.40;99.90;;;;;;5048086;28;20251;-68
2022/01/27 08:50:53;;;;;;;14.40;6.10;;;2.40;99.90;;;;;;5046694;28;20679;-69
2022/01/27 08:53:19;;;;;;;27.87;12.57;;;2.50;99.90;;;;;;5038904;28;20450;-68
2022/01/27 08:55:46;;;;;;;33.90;15.60;;;2.50;99.90;;;;;;5045657;28;20484;-69
2022/01/27 08:58:12;;;;;;;45.80;20.47;;;2.50;99.90;;;;;;5039728;28;20227;-69
2022/01/27 09:00:38;;;;;;;35.13;19.70;;;2.50;99.90;;;;;;5029481;28;20462;-70
2022/01/27 09:03:04;;;;;;;32.03;18.77;;;2.50;99.90;;;;;;5040773;28;20554;-70
2022/01/27 09:05:30;;;;;;;26.53;13.93;;;2.50;99.90;;;;;;5047921;28;20533;-68
2022/01/27 09:07:57;;;;;;;17.50;9.27;;;2.50;99.90;;;;;;5031826;28;20231;-69
2022/01/27 09:10:26;;;;;;;17.63;9.97;;;2.50;99.90;;;;;;5053163;28;20216;-70
2022/01/27 09:12:52;;;;;;;17.30;9.50;;;2.50;99.90;;;;;;5049346;28;20520;-67
2022/01/27 09:15:17;;;;;;;18.30;9.50;;;2.50;99.90;;;;;;5046162;28;20454;-68
2022/01/27 09:17:43;;;;;;;26.80;11.90;;;2.50;99.90;;;;;;5043973;28;20260;-70
2022/01/27 09:20:11;;;;;;;14.17;7.80;;;2.50;99.90;;;;;;5047063;28;20319;-68
2022/01/27 09:22:38;;;;;;;19.13;9.13;;;2.50;99.90;;;;;;5046115;28;20274;-69
2022/01/27 09:25:12;;;;;;;19.30;8.23;;;2.50;99.90;;;;;;5032725;28;20454;-68
2022/01/27 09:27:38;;;;;;;10.23;6.10;;;2.50;99.90;;;;;;5058158;28;20592;-68
2022/01/27 09:30:05;;;;;;;12.87;5.40;;;2.50;99.90;;;;;;5048619;28;20462;-68
2022/01/27 09:32:30;;;;;;;9.90;5.97;;;2.50;99.90;;;;;;5047529;28;20532;-70
2022/01/27 09:34:56;;;;;;;12.83;6.80;;;2.50;99.90;;;;;;5046901;28;20523;-70
2022/01/27 09:37:22;;;;;;;13.10;6.37;;;2.50;99.90;;;;;;5044761;28;20216;-70
2022/01/27 09:39:48;;;;;;;11.17;6.70;;;2.50;99.90;;;;;;5046519;28;20224;-68
2022/01/27 09:42:14;;;;;;;9.67;5.07;;;2.50;99.90;;;;;;5046531;28;20224;-67
2022/01/27 09:44:43;;;;;;;14.23;6.13;;;2.50;99.90;;;;;;5040237;28;20453;-70
2022/01/27 09:47:16;;;;;;;14.47;6.20;;;2.50;99.90;;;;;;5045093;28;20469;-70
2022/01/27 09:49:50;;;;;;;;;;;;;;;;;;;;;
2022/01/27 09:52:08;;;;;;;14.13;6.50;;;2.50;99.90;;;;;;5046094;28;20553;-70
2022/01/27 09:54:35;;;;;;;13.17;6.37;;;2.50;99.90;;;;;;5045459;28;20250;-70
2022/01/27 09:57:02;;;;;;;9.60;5.60;;;2.50;99.90;;;;;;5046528;28;20887;-70
2022/01/27 09:59:28;;;;;;;9.20;5.17;;;2.50;99.90;;;;;;5042530;28;20505;-69
2022/01/27 10:02:07;;;;;;;12.30;6.43;;;2.50;99.90;;;;;;5057465;28;20470;-69
2022/01/27 10:04:52;;;;;;;16.03;6.27;;;2.50;99.90;;;;;;5046254;28;20219;-69
2022/01/27 10:07:23;;;;;;;13.77;4.87;;;2.50;99.90;;;;;;5043193;28;20458;-70
2022/01/27 10:09:56;;;;;;;11.13;5.10;;;2.50;99.90;;;;;;5041118;28;21048;-70
2022/01/27 10:12:36;;;;;;;8.67;5.87;;;2.50;99.90;;;;;;5043514;28;20461;-70
2022/01/27 10:15:11;;;;;;;17.37;6.87;;;2.50;99.90;;;;;;5046095;28;20450;-70
2022/01/27 10:17:39;;;;;;;12.60;6.23;;;2.50;99.90;;;;;;5044774;28;20450;-68
2022/01/27 10:20:18;;;;;;;18.23;9.80;;;2.50;99.90;;;;;;5045466;28;20450;-69
2022/01/27 10:23:20;;;;;;;27.30;14.00;;;2.60;99.90;;;;;;5025835;28;20477;-68
2022/01/27 10:25:56;;;;;;;24.40;12.17;;;2.60;99.90;;;;;;5051285;28;20454;-69
2022/01/27 10:31:11;;;;;;;16.93;11.37;;;2.60;99.90;;;;;;5068029;28;20441;-68
2022/01/27 10:33:48;;;;;;;14.70;10.33;;;2.60;99.90;;;;;;5078079;28;20458;-68
2022/01/27 10:36:17;;;;;;;12.07;8.07;;;2.70;99.90;;;;;;5053507;28;20471;-70
2022/01/27 10:38:43;;;;;;;17.33;7.77;;;2.70;99.90;;;;;;5056650;28;20493;-68
2022/01/27 10:41:08;;;;;;;12.77;6.23;;;2.70;99.90;;;;;;5044546;28;20517;-70
2022/01/27 10:43:34;;;;;;;11.07;6.83;;;2.80;99.90;;;;;;5052547;28;20465;-68
2022/01/27 10:46:07;;;;;;;17.80;7.80;;;2.80;99.90;;;;;;5042870;28;20296;-69
2022/01/27 10:48:38;;;;;;;19.60;11.40;;;2.80;99.90;;;;;;5032207;28;20224;-69
2022/01/27 10:51:17;;;;;;;44.40;18.10;;;2.90;99.90;;;;;;5047089;28;20465;-69
2022/01/27 10:54:01;;;;;;;28.67;14.70;;;2.90;99.90;;;;;;5055091;28;20507;-69
2022/01/27 10:56:30;;;;;;;39.77;18.37;;;2.90;99.90;;;;;;5052126;28;20504;-70
2022/01/27 10:58:58;;;;;;;27.77;15.73;;;2.90;99.90;;;;;;5036242;28;20466;-70
2022/01/27 11:01:25;;;;;;;16.57;9.30;;;2.90;99.90;;;;;;5040961;28;20474;-69
2022/01/27 11:03:52;;;;;;;13.97;7.07;;;3.00;99.90;;;;;;5036787;28;20478;-69
2022/01/27 11:06:20;;;;;;;9.73;5.27;;;2.90;99.90;;;;;;5045327;28;20983;-67
2022/01/27 11:08:47;;;;;;;11.00;5.83;;;3.00;99.90;;;;;;5037726;28;20484;-69
2022/01/27 11:11:13;;;;;;;12.30;5.63;;;3.00;99.90;;;;;;5046876;28;20447;-70
2022/01/27 11:13:43;;;;;;;12.60;6.20;;;3.00;99.90;;;;;;5042730;28;20447;-70
2022/01/27 11:16:12;;;;;;;13.70;6.63;;;3.00;99.90;;;;;;5045044;28;20529;-69
2022/01/27 11:18:39;;;;;;;16.07;8.23;;;3.00;99.90;;;;;;5057823;28;20446;-67
2022/01/27 11:21:12;;;;;;;19.03;9.80;;;3.00;99.90;;;;;;5052575;28;20484;-69
2022/01/27 11:26:08;;;;;;;26.03;13.83;;;3.10;99.90;;;;;;5056505;28;20534;-68
2022/01/27 11:28:36;;;;;;;21.97;11.40;;;3.20;99.90;;;;;;5043779;28;20469;-69
2022/01/27 11:31:25;;;;;;;20.10;11.80;;;3.20;99.90;;;;;;5046988;28;20450;-71
2022/01/27 11:34:03;;;;;;;54.03;19.97;;;3.20;99.90;;;;;;5055036;28;20497;-70
2022/01/27 11:36:29;;;;;;;37.20;18.73;;;3.30;99.90;;;;;;5057603;28;20473;-69
2022/01/27 11:38:57;;;;;;;22.40;11.17;;;3.30;99.90;;;;;;5044762;28;20967;-70
2022/01/27 11:41:43;;;;;;;15.30;8.83;;;3.30;99.90;;;;;;5056051;28;20461;-69
2022/01/27 11:44:28;;;;;;;19.40;7.90;;;3.30;99.90;;;;;;5053906;28;20454;-70
2022/01/27 11:47:10;;;;;;;;;;;;;;;;;;;;;
2022/01/27 11:52:23;;;;;;;12.80;6.70;;;3.40;99.90;;;;;;5028008;28;20457;-68
2022/01/27 11:54:49;;;;;;;13.70;6.63;;;3.40;99.90;;;;;;5044801;28;20446;-68
2022/01/27 11:57:40;;;;;;;14.47;6.87;;;3.40;99.90;;;;;;5046082;28;20995;-70
2022/01/27 12:00:12;;;;;;;10.80;6.60;;;3.40;99.90;;;;;;5054727;28;20598;-70
2022/01/27 12:03:01;;;;;;;12.60;6.27;;;3.40;99.90;;;;;;5042164;28;20473;-70
2022/01/27 12:05:31;;;;;;;13.27;6.73;;;3.40;99.90;;;;;;5026114;28;20451;-69
2022/01/27 12:08:12;;;;;;;13.30;7.80;;;3.40;99.90;;;;;;5009001;28;20455;-70
2022/01/27 12:10:46;;;;;;;11.23;6.80;;;3.40;99.90;;;;;;5060074;28;20814;-69
2022/01/27 12:13:29;;;;;;;12.70;6.57;;;3.50;99.90;;;;;;5047829;28;20462;-70
2022/01/27 12:19:02;;;;;;;14.90;8.70;;;3.50;99.90;;;;;;5054474;28;21099;-69
2022/01/27 12:21:29;;;;;;;17.77;9.20;;;3.50;99.90;;;;;;5056879;28;20458;-70
2022/01/27 12:24:31;;;;;;;12.60;7.90;;;3.50;99.90;;;;;;5048068;28;20457;-70
2022/01/27 12:27:04;;;;;;;18.93;8.80;;;3.50;99.90;;;;;;5039768;28;20477;-68
2022/01/27 12:29:40;;;;;;;16.63;9.47;;;3.40;99.90;;;;;;5046587;28;20537;-69
2022/01/27 12:32:09;;;;;;;14.97;8.90;;;3.40;99.90;;;;;;5065324;28;20458;-70
2022/01/27 12:34:37;;;;;;;17.40;9.50;;;3.40;99.90;;;;;;5081318;28;20446;-69
2022/01/27 12:37:07;;;;;;;28.30;9.83;;;3.40;99.90;;;;;;5080526;28;20471;-70
2022/01/27 12:39:53;;;;;;;14.27;8.03;;;3.40;99.90;;;;;;5048806;28;20471;-69
2022/01/27 12:42:20;;;;;;;19.27;8.90;;;3.40;99.90;;;;;;5050432;28;20470;-69
2022/01/27 12:44:59;;;;;;;14.07;7.60;;;3.40;99.90;;;;;;5033113;28;20462;-68
2022/01/27 12:47:26;;;;;;;13.50;7.87;;;3.40;99.90;;;;;;5045931;28;20956;-68
2022/01/27 12:50:08;;;;;;;21.30;10.87;;;3.30;99.90;;;;;;5046067;28;20448;-68
2022/01/27 12:52:43;;;;;;;21.90;11.03;;;3.30;99.90;;;;;;5044475;28;20529;-69
2022/01/27 12:55:19;;;;;;;24.10;11.00;;;3.30;99.90;;;;;;5041859;28;20450;-70
2022/01/27 12:57:55;;;;;;;25.50;15.33;;;3.30;99.90;;;;;;5043861;28;20458;-70
2022/01/27 13:00:22;;;;;;;25.80;15.70;;;3.30;99.90;;;;;;5055123;28;20569;-70
2022/01/27 13:02:47;;;;;;;36.57;19.47;;;3.30;99.90;;;;;;5048358;28;20473;-67
2022/01/27 13:05:13;;;;;;;32.70;16.87;;;3.30;99.90;;;;;;5032477;28;20863;-69
2022/01/27 13:07:42;;;;;;;27.37;15.90;;;3.30;99.90;;;;;;5065874;28;20299;-68
2022/01/27 13:10:13;;;;;;;19.90;12.97;;;3.20;99.90;;;;;;5051995;28;20243;-69
2022/01/27 13:12:52;;;;;;;23.00;13.10;;;3.30;99.90;;;;;;5040718;28;20651;-69
2022/01/27 13:15:21;;;;;;;15.40;8.90;;;3.30;99.90;;;;;;5040474;28;20466;-69
2022/01/27 13:17:52;;;;;;;;;;;;;;;;;;;;;
2022/01/27 13:20:24;;;;;;;13.23;6.57;;;3.30;99.90;;;;;;5047552;28;20461;-69
2022/01/27 13:22:56;;;;;;;14.20;7.10;;;3.30;99.90;;;;;;5041800;28;20849;-68
2022/01/27 13:25:24;;;;;;;16.83;7.63;;;3.30;99.90;;;;;;5048326;28;20545;-68
2022/01/27 13:28:04;;;;;;;9.50;5.80;;;3.30;99.90;;;;;;5034980;28;20542;-69
2022/01/27 13:30:31;;;;;;;12.17;6.70;;;3.40;99.90;;;;;;5051473;28;20505;-70
2022/01/27 13:32:57;;;;;;;14.07;7.67;;;3.40;99.90;;;;;;5049402;28;20473;-69
2022/01/27 13:35:23;;;;;;;12.23;7.03;;;3.40;99.90;;;;;;5055000;28;20465;-68
2022/01/27 13:37:48;;;;;;;11.13;6.50;;;3.40;99.90;;;;;;5023000;28;20232;-68
2022/01/27 13:43:13;;;;;;;11.40;6.07;;;3.50;99.90;;;;;;5047698;28;20239;-70
2022/01/27 13:45:40;;;;;;;13.37;6.40;;;3.50;99.90;;;;;;5046190;28;20453;-69
2022/01/27 13:48:21;;;;;;;11.90;7.20;;;3.50;99.90;;;;;;5046321;28;20470;-68
2022/01/27 13:50:59;;;;;;;13.70;6.17;;;3.60;99.90;;;;;;5040111;28;20458;-69
2022/01/27 13:53:25;;;;;;;12.90;6.20;;;3.50;99.90;;;;;;5054874;28;20497;-68
2022/01/27 13:56:04;;;;;;;13.70;6.80;;;3.60;99.90;;;;;;5045211;28;20510;-69
2022/01/27 13:58:30;;;;;;;10.67;6.50;;;3.60;99.90;;;;;;5030262;28;20501;-71